sensor_id;sensor_type;location;lat;lon;timestamp;pressure;altitude;pressure_sealevel;temperature;humidity
55540;BME280;41384;51.418;7.286;2023-04-07T00:00:36;99630.06;;;7.86;100.00
55540;BME280;41384;51.418;7.286;2023-04-07T00:03:01;99629.66;;;7.89;100.00
55540;BME280;41384;51.418;7.286;2023-04-07T00:05:30;99626.09;;;7.68;100.00
55540;BME280;41384;51.418;7.286;2023-04-07T00:07:56;99629.81;;;7.81;100.00
55540;BME280;41384;51.418;7.286;2023-04-07T00:10:21;99634.84;;;7.76;100.00
55540;BME280;41384;51.418;7.286;2023-04-07T00:12:46;99631.13;;;7.92;100.00
55540;BME280;41384;51.418;7.286;2023-04-07T00:15:12;99623.19;;;7.85;100.00
55540;BME280;41384;51.418;7.286;2023-04-07T00:17:37;99613.78;;;8.04;100.00
55540;BME280;41384;51.418;7.286;2023-04-07T00:20:02;99622.19;;;8.21;100.00
55540;BME280;41384;51.418;7.286;2023-04-07T00:22:28;99624.22;;;8.26;100.00
55540;BME280;41384;51.418;7.286;2023-04-07T00:24:53;99619.78;;;8.33;100.00
55540;BME280;41384;51.418;7.286;2023-04-07T00:27:19;99623.13;;;8.13;100.00
55540;BME280;41384;51.418;7.286;2023-04-07T00:29:44;99621.28;;;8.00;100.00
55540;BME280;41384;51.418;7.286;2023-04-07T00:32:10;99615.25;;;8.13;100.00
55540;BME280;41384;51.418;7.286;2023-04-07T00:34:36;99621.72;;;8.11;100.00
55540;BME280;41384;51.418;7.286;2023-04-07T00:37:01;99614.47;;;8.13;100.00
55540;BME280;41384;51.418;7.286;2023-04-07T00:39:26;99621.00;;;8.30;100.00
55540;BME280;41384;51.418;7.286;2023-04-07T00:41:52;99622.59;;;8.25;100.00
55540;BME280;41384;51.418;7.286;2023-04-07T00:44:17;99613.63;;;8.12;100.00
55540;BME280;41384;51.418;7.286;2023-04-07T00:46:42;99611.66;;;8.28;100.00
55540;BME280;41384;51.418;7.286;2023-04-07T00:49:08;99606.41;;;8.28;100.00
55540;BME280;41384;51.418;7.286;2023-04-07T00:51:33;99610.38;;;8.10;100.00
55540;BME280;41384;51.418;7.286;2023-04-07T00:53:59;99603.91;;;8.06;100.00
55540;BME280;41384;51.418;7.286;2023-04-07T00:56:26;99610.81;;;8.14;100.00
55540;BME280;41384;51.418;7.286;2023-04-07T00:58:51;99612.22;;;8.10;100.00
55540;BME280;41384;51.418;7.286;2023-04-07T01:01:26;99604.34;;;8.16;100.00
55540;BME280;41384;51.418;7.286;2023-04-07T01:04:04;99600.53;;;8.19;100.00
55540;BME280;41384;51.418;7.286;2023-04-07T01:06:35;99591.28;;;8.37;100.00
55540;BME280;41384;51.418;7.286;2023-04-07T01:14:39;99594.56;;;8.45;100.00
55540;BME280;41384;51.418;7.286;2023-04-07T01:17:06;99601.44;;;8.46;100.00
55540;BME280;41384;51.418;7.286;2023-04-07T01:19:39;99593.41;;;8.55;100.00
55540;BME280;41384;51.418;7.286;2023-04-07T01:22:12;99594.81;;;8.51;100.00
55540;BME280;41384;51.418;7.286;2023-04-07T01:24:52;99595.63;;;8.58;100.00
55540;BME280;41384;51.418;7.286;2023-04-07T01:27:33;99597.84;;;8.54;100.00
55540;BME280;41384;51.418;7.286;2023-04-07T01:30:01;99600.09;;;8.64;100.00
55540;BME280;41384;51.418;7.286;2023-04-07T01:32:28;99594.41;;;8.54;100.00
55540;BME280;41384;51.418;7.286;2023-04-07T01:34:56;99590.47;;;8.36;100.00
55540;BME280;41384;51.418;7.286;2023-04-07T01:37:22;99599.09;;;8.16;100.00
55540;BME280;41384;51.418;7.286;2023-04-07T01:39:48;99593.88;;;8.23;100.00
55540;BME280;41384;51.418;7.286;2023-04-07T01:42:14;99595.56;;;8.44;100.00
55540;BME280;41384;51.418;7.286;2023-04-07T01:44:40;99586.47;;;8.47;100.00
55540;BME280;41384;51.418;7.286;2023-04-07T01:47:07;99595.19;;;8.47;100.00
55540;BME280;41384;51.418;7.286;2023-04-07T01:49:33;99601.25;;;8.48;100.00
55540;BME280;41384;51.418;7.286;2023-04-07T01:52:00;99595.31;;;8.39;100.00
55540;BME280;41384;51.418;7.286;2023-04-07T01:54:26;99590.72;;;8.41;100.00
55540;BME280;41384;51.418;7.286;2023-04-07T01:56:52;99589.91;;;8.47;100.00
55540;BME280;41384;51.418;7.286;2023-04-07T01:59:17;99583.44;;;8.43;100.00
55540;BME280;41384;51.418;7.286;2023-04-07T02:01:42;99584.03;;;8.45;100.00
55540;BME280;41384;51.418;7.286;2023-04-07T02:04:19;99588.25;;;8.40;100.00
55540;BME280;41384;51.418;7.286;2023-04-07T02:06:53;99585.31;;;8.50;100.00
55540;BME280;41384;51.418;7.286;2023-04-07T02:09:21;99583.47;;;8.50;100.00
55540;BME280;41384;51.418;7.286;2023-04-07T02:11:49;99589.72;;;8.49;100.00
55540;BME280;41384;51.418;7.286;2023-04-07T02:14:15;99584.91;;;8.59;100.00
55540;BME280;41384;51.418;7.286;2023-04-07T02:16:42;99589.16;;;8.54;100.00
55540;BME280;41384;51.418;7.286;2023-04-07T02:19:08;99585.91;;;8.52;100.00
55540;BME280;41384;51.418;7.286;2023-04-07T02:21:34;99591.56;;;8.55;100.00
55540;BME280;41384;51.418;7.286;2023-04-07T02:24:01;99586.31;;;8.55;100.00
55540;BME280;41384;51.418;7.286;2023-04-07T02:26:26;99583.91;;;8.60;100.00
55540;BME280;41384;51.418;7.286;2023-04-07T02:28:51;99581.44;;;8.52;100.00
55540;BME280;41384;51.418;7.286;2023-04-07T02:31:17;99583.22;;;8.45;100.00
55540;BME280;41384;51.418;7.286;2023-04-07T02:33:42;99582.66;;;8.56;100.00
55540;BME280;41384;51.418;7.286;2023-04-07T02:36:07;99582.09;;;8.61;100.00
55540;BME280;41384;51.418;7.286;2023-04-07T02:38:33;99580.06;;;8.63;100.00
55540;BME280;41384;51.418;7.286;2023-04-07T02:40:58;99583.84;;;8.47;100.00
55540;BME280;41384;51.418;7.286;2023-04-07T02:43:23;99582.88;;;8.55;100.00
55540;BME280;41384;51.418;7.286;2023-04-07T02:45:49;99585.72;;;8.60;100.00
55540;BME280;41384;51.418;7.286;2023-04-07T02:48:15;99587.75;;;8.65;100.00
55540;BME280;41384;51.418;7.286;2023-04-07T02:50:40;99582.91;;;8.68;100.00
55540;BME280;41384;51.418;7.286;2023-04-07T02:53:06;99587.56;;;8.73;100.00
55540;BME280;41384;51.418;7.286;2023-04-07T02:55:31;99581.28;;;8.74;100.00
55540;BME280;41384;51.418;7.286;2023-04-07T02:57:56;99586.16;;;8.70;100.00
55540;BME280;41384;51.418;7.286;2023-04-07T03:00:21;99582.09;;;8.68;100.00
55540;BME280;41384;51.418;7.286;2023-04-07T03:02:47;99582.69;;;8.70;100.00
55540;BME280;41384;51.418;7.286;2023-04-07T03:05:12;99581.47;;;8.59;100.00
55540;BME280;41384;51.418;7.286;2023-04-07T03:07:37;99589.59;;;8.64;100.00
55540;BME280;41384;51.418;7.286;2023-04-07T03:10:03;99584.94;;;8.66;100.00
55540;BME280;41384;51.418;7.286;2023-04-07T03:12:28;99579.66;;;8.66;100.00
55540;BME280;41384;51.418;7.286;2023-04-07T03:14:53;99585.72;;;8.67;100.00
55540;BME280;41384;51.418;7.286;2023-04-07T03:17:19;99590.81;;;8.68;100.00
55540;BME280;41384;51.418;7.286;2023-04-07T03:19:44;99588.56;;;8.65;100.00
55540;BME280;41384;51.418;7.286;2023-04-07T03:22:11;99583.50;;;8.64;100.00
55540;BME280;41384;51.418;7.286;2023-04-07T03:24:36;99587.13;;;8.63;100.00
55540;BME280;41384;51.418;7.286;2023-04-07T03:27:03;99589.97;;;8.61;100.00
55540;BME280;41384;51.418;7.286;2023-04-07T03:29:29;99585.72;;;8.67;100.00
55540;BME280;41384;51.418;7.286;2023-04-07T03:31:54;99585.53;;;8.61;100.00
55540;BME280;41384;51.418;7.286;2023-04-07T03:34:20;99582.50;;;8.71;100.00
55540;BME280;41384;51.418;7.286;2023-04-07T03:36:45;99583.53;;;8.70;100.00
55540;BME280;41384;51.418;7.286;2023-04-07T03:39:10;99582.69;;;8.63;100.00
55540;BME280;41384;51.418;7.286;2023-04-07T03:41:35;99591.41;;;8.70;100.00
55540;BME280;41384;51.418;7.286;2023-04-07T03:44:01;99588.97;;;8.69;100.00
55540;BME280;41384;51.418;7.286;2023-04-07T03:46:26;99584.75;;;8.74;100.00
55540;BME280;41384;51.418;7.286;2023-04-07T03:48:51;99586.38;;;8.75;100.00
55540;BME280;41384;51.418;7.286;2023-04-07T03:51:17;99587.56;;;8.73;100.00
55540;BME280;41384;51.418;7.286;2023-04-07T03:53:42;99591.22;;;8.79;100.00
55540;BME280;41384;51.418;7.286;2023-04-07T03:56:07;99598.69;;;8.75;100.00
55540;BME280;41384;51.418;7.286;2023-04-07T03:58:33;99593.22;;;8.63;100.00
55540;BME280;41384;51.418;7.286;2023-04-07T04:00:58;99585.34;;;8.63;100.00
55540;BME280;41384;51.418;7.286;2023-04-07T04:03:23;99593.63;;;8.60;100.00
55540;BME280;41384;51.418;7.286;2023-04-07T04:05:49;99595.47;;;8.66;100.00
55540;BME280;41384;51.418;7.286;2023-04-07T04:08:14;99595.03;;;8.63;100.00
55540;BME280;41384;51.418;7.286;2023-04-07T04:10:39;99596.06;;;8.68;100.00
55540;BME280;41384;51.418;7.286;2023-04-07T04:13:05;99594.84;;;8.71;100.00
55540;BME280;41384;51.418;7.286;2023-04-07T04:15:32;99595.88;;;8.76;100.00
55540;BME280;41384;51.418;7.286;2023-04-07T04:17:57;99594.25;;;8.75;100.00
55540;BME280;41384;51.418;7.286;2023-04-07T04:20:22;99599.31;;;8.70;100.00
55540;BME280;41384;51.418;7.286;2023-04-07T04:22:48;99598.69;;;8.68;100.00
55540;BME280;41384;51.418;7.286;2023-04-07T04:25:15;99597.69;;;8.69;100.00
55540;BME280;41384;51.418;7.286;2023-04-07T04:27:40;99596.69;;;8.70;100.00
55540;BME280;41384;51.418;7.286;2023-04-07T04:30:06;99597.28;;;8.72;100.00
55540;BME280;41384;51.418;7.286;2023-04-07T04:32:32;99607.78;;;8.66;100.00
55540;BME280;41384;51.418;7.286;2023-04-07T04:34:57;99606.59;;;8.75;100.00
55540;BME280;41384;51.418;7.286;2023-04-07T04:37:22;99606.19;;;8.71;100.00
55540;BME280;41384;51.418;7.286;2023-04-07T04:39:48;99614.31;;;8.76;100.00
55540;BME280;41384;51.418;7.286;2023-04-07T04:42:13;99614.88;;;8.72;100.00
55540;BME280;41384;51.418;7.286;2023-04-07T04:44:38;99615.09;;;8.70;100.00
55540;BME280;41384;51.418;7.286;2023-04-07T04:47:03;99621.59;;;8.74;100.00
55540;BME280;41384;51.418;7.286;2023-04-07T04:49:29;99626.03;;;8.74;100.00
55540;BME280;41384;51.418;7.286;2023-04-07T04:51:54;99621.97;;;8.78;100.00
55540;BME280;41384;51.418;7.286;2023-04-07T04:54:19;99627.25;;;8.71;100.00
55540;BME280;41384;51.418;7.286;2023-04-07T04:56:45;99621.16;;;8.64;100.00
55540;BME280;41384;51.418;7.286;2023-04-07T04:59:10;99620.38;;;8.70;100.00
55540;BME280;41384;51.418;7.286;2023-04-07T05:01:35;99631.06;;;8.69;100.00
55540;BME280;41384;51.418;7.286;2023-04-07T05:04:01;99627.47;;;8.76;100.00
55540;BME280;41384;51.418;7.286;2023-04-07T05:06:26;99628.06;;;8.79;100.00
55540;BME280;41384;51.418;7.286;2023-04-07T05:08:52;99626.25;;;8.79;100.00
55540;BME280;41384;51.418;7.286;2023-04-07T05:11:17;99635.34;;;8.76;100.00
55540;BME280;41384;51.418;7.286;2023-04-07T05:13:42;99631.31;;;8.81;100.00
55540;BME280;41384;51.418;7.286;2023-04-07T05:16:08;99631.72;;;8.78;100.00
55540;BME280;41384;51.418;7.286;2023-04-07T05:18:33;99637.78;;;8.71;100.00
55540;BME280;41384;51.418;7.286;2023-04-07T05:20:58;99640.81;;;8.68;100.00
55540;BME280;41384;51.418;7.286;2023-04-07T05:23:25;99639.41;;;8.72;100.00
55540;BME280;41384;51.418;7.286;2023-04-07T05:25:51;99647.28;;;8.79;100.00
55540;BME280;41384;51.418;7.286;2023-04-07T05:28:16;99655.59;;;8.76;100.00
55540;BME280;41384;51.418;7.286;2023-04-07T05:30:41;99644.03;;;8.70;100.00
55540;BME280;41384;51.418;7.286;2023-04-07T05:33:06;99646.84;;;8.69;100.00
55540;BME280;41384;51.418;7.286;2023-04-07T05:35:32;99650.31;;;8.69;100.00
55540;BME280;41384;51.418;7.286;2023-04-07T05:37:57;99651.91;;;8.64;100.00
55540;BME280;41384;51.418;7.286;2023-04-07T05:40:22;99655.19;;;8.72;100.00
55540;BME280;41384;51.418;7.286;2023-04-07T05:42:48;99651.72;;;8.72;100.00
55540;BME280;41384;51.418;7.286;2023-04-07T05:45:13;99663.66;;;8.68;100.00
55540;BME280;41384;51.418;7.286;2023-04-07T05:47:39;99654.34;;;8.65;100.00
55540;BME280;41384;51.418;7.286;2023-04-07T05:50:04;99665.72;;;8.72;100.00
55540;BME280;41384;51.418;7.286;2023-04-07T05:52:30;99674.41;;;8.73;100.00
55540;BME280;41384;51.418;7.286;2023-04-07T05:54:55;99662.25;;;8.72;100.00
55540;BME280;41384;51.418;7.286;2023-04-07T05:57:20;99666.94;;;8.76;100.00
55540;BME280;41384;51.418;7.286;2023-04-07T05:59:46;99670.19;;;8.79;100.00
55540;BME280;41384;51.418;7.286;2023-04-07T06:02:12;99667.94;;;8.82;100.00
55540;BME280;41384;51.418;7.286;2023-04-07T06:04:38;99676.06;;;8.81;100.00
55540;BME280;41384;51.418;7.286;2023-04-07T06:07:03;99681.94;;;8.83;100.00
55540;BME280;41384;51.418;7.286;2023-04-07T06:09:29;99681.50;;;8.79;100.00
55540;BME280;41384;51.418;7.286;2023-04-07T06:11:54;99682.72;;;8.83;100.00
55540;BME280;41384;51.418;7.286;2023-04-07T06:14:20;99684.56;;;8.83;100.00
55540;BME280;41384;51.418;7.286;2023-04-07T06:16:46;99685.00;;;8.86;100.00
55540;BME280;41384;51.418;7.286;2023-04-07T06:19:11;99688.03;;;8.90;100.00
55540;BME280;41384;51.418;7.286;2023-04-07T06:21:36;99684.00;;;8.94;100.00
55540;BME280;41384;51.418;7.286;2023-04-07T06:24:02;99693.66;;;8.80;100.00
55540;BME280;41384;51.418;7.286;2023-04-07T06:26:27;99692.69;;;8.88;100.00
55540;BME280;41384;51.418;7.286;2023-04-07T06:28:53;99697.16;;;8.94;100.00
55540;BME280;41384;51.418;7.286;2023-04-07T06:31:18;99697.16;;;8.94;100.00
55540;BME280;41384;51.418;7.286;2023-04-07T06:33:44;99695.13;;;8.96;100.00
55540;BME280;41384;51.418;7.286;2023-04-07T06:36:10;99700.41;;;8.96;100.00
55540;BME280;41384;51.418;7.286;2023-04-07T06:38:36;99699.34;;;8.84;100.00
55540;BME280;41384;51.418;7.286;2023-04-07T06:41:01;99696.13;;;8.88;100.00
55540;BME280;41384;51.418;7.286;2023-04-07T06:43:26;99706.06;;;8.93;100.00
55540;BME280;41384;51.418;7.286;2023-04-07T06:45:52;99698.56;;;8.90;100.00
55540;BME280;41384;51.418;7.286;2023-04-07T06:48:17;99710.69;;;8.84;100.00
55540;BME280;41384;51.418;7.286;2023-04-07T06:50:46;99711.09;;;8.88;100.00
55540;BME280;41384;51.418;7.286;2023-04-07T06:53:13;99702.41;;;8.87;100.00
55540;BME280;41384;51.418;7.286;2023-04-07T06:55:38;99707.41;;;8.75;100.00
55540;BME280;41384;51.418;7.286;2023-04-07T06:58:03;99718.38;;;8.86;100.00
55540;BME280;41384;51.418;7.286;2023-04-07T07:00:29;99717.38;;;8.87;100.00
55540;BME280;41384;51.418;7.286;2023-04-07T07:02:55;99718.81;;;8.89;100.00
55540;BME280;41384;51.418;7.286;2023-04-07T07:05:21;99718.00;;;8.89;100.00
55540;BME280;41384;51.418;7.286;2023-04-07T07:07:47;99722.47;;;8.95;100.00
55540;BME280;41384;51.418;7.286;2023-04-07T07:10:12;99721.28;;;8.98;100.00
55540;BME280;41384;51.418;7.286;2023-04-07T07:12:38;99733.59;;;8.90;100.00
55540;BME280;41384;51.418;7.286;2023-04-07T07:15:03;99727.53;;;8.97;100.00
55540;BME280;41384;51.418;7.286;2023-04-07T07:17:29;99731.19;;;9.02;100.00
55540;BME280;41384;51.418;7.286;2023-04-07T07:19:54;99735.22;;;8.98;100.00
55540;BME280;41384;51.418;7.286;2023-04-07T07:22:19;99736.47;;;9.02;100.00
55540;BME280;41384;51.418;7.286;2023-04-07T07:24:45;99734.44;;;9.04;100.00
55540;BME280;41384;51.418;7.286;2023-04-07T07:27:10;99741.53;;;9.04;100.00
55540;BME280;41384;51.418;7.286;2023-04-07T07:29:35;99741.16;;;9.07;100.00
55540;BME280;41384;51.418;7.286;2023-04-07T07:32:01;99744.78;;;9.06;100.00
55540;BME280;41384;51.418;7.286;2023-04-07T07:34:26;99742.94;;;9.07;100.00
55540;BME280;41384;51.418;7.286;2023-04-07T07:36:51;99742.56;;;9.03;100.00
55540;BME280;41384;51.418;7.286;2023-04-07T07:39:16;99753.09;;;9.10;100.00
55540;BME280;41384;51.418;7.286;2023-04-07T07:41:42;99748.63;;;9.03;100.00
55540;BME280;41384;51.418;7.286;2023-04-07T07:44:07;99755.28;;;8.99;100.00
55540;BME280;41384;51.418;7.286;2023-04-07T07:46:33;99763.22;;;9.13;100.00
55540;BME280;41384;51.418;7.286;2023-04-07T07:48:58;99766.06;;;9.11;100.00
55540;BME280;41384;51.418;7.286;2023-04-07T07:51:23;99765.63;;;9.08;100.00
55540;BME280;41384;51.418;7.286;2023-04-07T07:53:48;99764.63;;;9.09;100.00
55540;BME280;41384;51.418;7.286;2023-04-07T07:56:14;99764.84;;;9.14;100.00
55540;BME280;41384;51.418;7.286;2023-04-07T07:58:39;99768.50;;;9.13;100.00
55540;BME280;41384;51.418;7.286;2023-04-07T08:01:05;99774.38;;;9.15;100.00
55540;BME280;41384;51.418;7.286;2023-04-07T08:03:30;99775.81;;;9.17;100.00
55540;BME280;41384;51.418;7.286;2023-04-07T08:05:55;99778.22;;;9.19;100.00
55540;BME280;41384;51.418;7.286;2023-04-07T08:08:21;99779.41;;;9.10;100.00
55540;BME280;41384;51.418;7.286;2023-04-07T08:10:46;99783.88;;;9.16;100.00
55540;BME280;41384;51.418;7.286;2023-04-07T08:13:11;99786.97;;;9.19;100.00
55540;BME280;41384;51.418;7.286;2023-04-07T08:15:38;99787.34;;;9.23;100.00
55540;BME280;41384;51.418;7.286;2023-04-07T08:18:03;99789.22;;;9.29;100.00
55540;BME280;41384;51.418;7.286;2023-04-07T08:20:30;99792.69;;;9.37;100.00
55540;BME280;41384;51.418;7.286;2023-04-07T08:22:56;99793.50;;;9.37;100.00
55540;BME280;41384;51.418;7.286;2023-04-07T08:25:21;99791.22;;;9.27;100.00
55540;BME280;41384;51.418;7.286;2023-04-07T08:27:47;99786.41;;;9.38;100.00
55540;BME280;41384;51.418;7.286;2023-04-07T08:30:12;99797.97;;;9.43;100.00
55540;BME280;41384;51.418;7.286;2023-04-07T08:32:43;99803.44;;;9.42;100.00
55540;BME280;41384;51.418;7.286;2023-04-07T08:35:08;99804.44;;;9.41;100.00
55540;BME280;41384;51.418;7.286;2023-04-07T08:37:34;99799.22;;;9.54;100.00
55540;BME280;41384;51.418;7.286;2023-04-07T08:40:00;99799.59;;;9.51;100.00
55540;BME280;41384;51.418;7.286;2023-04-07T08:42:28;99796.78;;;9.59;100.00
55540;BME280;41384;51.418;7.286;2023-04-07T08:45:02;99808.16;;;9.67;100.00
55540;BME280;41384;51.418;7.286;2023-04-07T08:47:30;99808.75;;;9.69;100.00
55540;BME280;41384;51.418;7.286;2023-04-07T08:49:59;99806.53;;;9.66;100.00
55540;BME280;41384;51.418;7.286;2023-04-07T08:52:33;99807.75;;;9.70;100.00
55540;BME280;41384;51.418;7.286;2023-04-07T08:55:00;99803.69;;;9.60;100.00
55540;BME280;41384;51.418;7.286;2023-04-07T08:57:29;99817.47;;;9.69;100.00
55540;BME280;41384;51.418;7.286;2023-04-07T08:59:57;99811.19;;;9.63;100.00
55540;BME280;41384;51.418;7.286;2023-04-07T09:02:24;99812.81;;;9.64;100.00
55540;BME280;41384;51.418;7.286;2023-04-07T09:04:50;99814.22;;;9.67;100.00
55540;BME280;41384;51.418;7.286;2023-04-07T09:07:15;99829.66;;;9.77;100.00
55540;BME280;41384;51.418;7.286;2023-04-07T09:09:40;99821.50;;;9.65;100.00
55540;BME280;41384;51.418;7.286;2023-04-07T09:12:06;99826.63;;;9.73;100.00
55540;BME280;41384;51.418;7.286;2023-04-07T09:14:31;99832.47;;;9.62;100.00
55540;BME280;41384;51.418;7.286;2023-04-07T09:16:57;99824.56;;;9.69;100.00
55540;BME280;41384;51.418;7.286;2023-04-07T09:19:26;99833.09;;;9.71;100.00
55540;BME280;41384;51.418;7.286;2023-04-07T09:21:52;99830.28;;;9.72;100.00
55540;BME280;41384;51.418;7.286;2023-04-07T09:24:24;99828.63;;;9.64;100.00
55540;BME280;41384;51.418;7.286;2023-04-07T09:26:50;99833.28;;;9.62;100.00
55540;BME280;41384;51.418;7.286;2023-04-07T09:29:19;99825.97;;;9.58;100.00
55540;BME280;41384;51.418;7.286;2023-04-07T09:31:49;99827.81;;;9.57;100.00
55540;BME280;41384;51.418;7.286;2023-04-07T09:34:30;99832.47;;;9.62;100.00
55540;BME280;41384;51.418;7.286;2023-04-07T09:36:56;99828.81;;;9.63;100.00
55540;BME280;41384;51.418;7.286;2023-04-07T09:39:22;99830.84;;;9.61;100.00
55540;BME280;41384;51.418;7.286;2023-04-07T09:41:47;99821.72;;;9.63;100.00
55540;BME280;41384;51.418;7.286;2023-04-07T09:44:13;99830.84;;;9.61;100.00
55540;BME280;41384;51.418;7.286;2023-04-07T09:49:17;99833.69;;;9.59;100.00
55540;BME280;41384;51.418;7.286;2023-04-07T09:54:44;99835.50;;;9.59;100.00
55540;BME280;41384;51.418;7.286;2023-04-07T09:57:11;99843.41;;;9.52;100.00
55540;BME280;41384;51.418;7.286;2023-04-07T09:59:39;99855.75;;;9.52;100.00
55540;BME280;41384;51.418;7.286;2023-04-07T10:02:11;99847.88;;;9.58;100.00
55540;BME280;41384;51.418;7.286;2023-04-07T10:04:37;99846.03;;;9.59;100.00
55540;BME280;41384;51.418;7.286;2023-04-07T10:07:03;99844.41;;;9.51;100.00
55540;BME280;41384;51.418;7.286;2023-04-07T10:09:29;99853.94;;;9.52;100.00
55540;BME280;41384;51.418;7.286;2023-04-07T10:11:56;99852.28;;;9.44;100.00
55540;BME280;41384;51.418;7.286;2023-04-07T10:14:29;99846.22;;;9.51;100.00
55540;BME280;41384;51.418;7.286;2023-04-07T10:16:55;99859.59;;;9.56;100.00
55540;BME280;41384;51.418;7.286;2023-04-07T10:19:21;99850.50;;;9.58;100.00
55540;BME280;41384;51.418;7.286;2023-04-07T10:21:52;99863.91;;;9.63;100.00
55540;BME280;41384;51.418;7.286;2023-04-07T10:27:08;99863.06;;;9.56;100.00
55540;BME280;41384;51.418;7.286;2023-04-07T10:29:39;99864.88;;;9.56;100.00
55540;BME280;41384;51.418;7.286;2023-04-07T10:32:06;99866.69;;;9.48;100.00
55540;BME280;41384;51.418;7.286;2023-04-07T10:37:18;99876.44;;;9.55;100.00
55540;BME280;41384;51.418;7.286;2023-04-07T10:39:47;99876.81;;;9.52;100.00
55540;BME280;41384;51.418;7.286;2023-04-07T10:45:09;99873.59;;;9.56;100.00
55540;BME280;41384;51.418;7.286;2023-04-07T10:50:24;99883.13;;;9.57;100.00
55540;BME280;41384;51.418;7.286;2023-04-07T10:53:12;99877.25;;;9.55;100.00
55540;BME280;41384;51.418;7.286;2023-04-07T10:55:39;99880.69;;;9.49;100.00
55540;BME280;41384;51.418;7.286;2023-04-07T11:03:21;99877.25;;;9.62;100.00
55540;BME280;41384;51.418;7.286;2023-04-07T11:05:46;99889.63;;;9.61;100.00
55540;BME280;41384;51.418;7.286;2023-04-07T11:08:12;99891.22;;;9.49;100.00
55540;BME280;41384;51.418;7.286;2023-04-07T11:10:37;99888.81;;;9.61;100.00
55540;BME280;41384;51.418;7.286;2023-04-07T11:13:06;99888.25;;;9.79;100.00
55540;BME280;41384;51.418;7.286;2023-04-07T11:15:34;99889.88;;;9.80;100.00
55540;BME280;41384;51.418;7.286;2023-04-07T11:18:16;99885.25;;;9.89;100.00
55540;BME280;41384;51.418;7.286;2023-04-07T11:20:52;99892.97;;;10.04;100.00
55540;BME280;41384;51.418;7.286;2023-04-07T11:23:19;99887.09;;;10.02;100.00
55540;BME280;41384;51.418;7.286;2023-04-07T11:25:47;99895.41;;;9.99;100.00
55540;BME280;41384;51.418;7.286;2023-04-07T11:28:13;99894.59;;;9.98;100.00
55540;BME280;41384;51.418;7.286;2023-04-07T11:30:50;99902.09;;;9.95;100.00
55540;BME280;41384;51.418;7.286;2023-04-07T11:33:18;99900.03;;;9.83;100.00
55540;BME280;41384;51.418;7.286;2023-04-07T11:35:49;99906.09;;;9.77;100.00
55540;BME280;41384;51.418;7.286;2023-04-07T11:38:15;99902.25;;;9.80;100.00
55540;BME280;41384;51.418;7.286;2023-04-07T11:40:40;99909.34;;;9.72;100.00
55540;BME280;41384;51.418;7.286;2023-04-07T11:43:16;99910.50;;;9.63;100.00
55540;BME280;41384;51.418;7.286;2023-04-07T11:45:42;99916.44;;;9.72;100.00
55540;BME280;41384;51.418;7.286;2023-04-07T11:48:28;99911.16;;;9.72;100.00
55540;BME280;41384;51.418;7.286;2023-04-07T11:50:53;99912.16;;;9.71;100.00
55540;BME280;41384;51.418;7.286;2023-04-07T11:53:29;99917.22;;;9.66;100.00
55540;BME280;41384;51.418;7.286;2023-04-07T11:56:09;99919.06;;;9.72;100.00
55540;BME280;41384;51.418;7.286;2023-04-07T11:58:35;99922.53;;;9.79;100.00
55540;BME280;41384;51.418;7.286;2023-04-07T12:01:03;99927.00;;;9.78;100.00
55540;BME280;41384;51.418;7.286;2023-04-07T12:03:36;99927.19;;;9.77;100.00
55540;BME280;41384;51.418;7.286;2023-04-07T12:06:02;99928.84;;;9.91;100.00
55540;BME280;41384;51.418;7.286;2023-04-07T12:08:39;99936.75;;;9.91;100.00
55540;BME280;41384;51.418;7.286;2023-04-07T12:11:05;99935.34;;;9.96;100.00
55540;BME280;41384;51.418;7.286;2023-04-07T12:13:30;99937.59;;;9.92;100.00
55540;BME280;41384;51.418;7.286;2023-04-07T12:15:58;99948.31;;;9.84;100.00
55540;BME280;41384;51.418;7.286;2023-04-07T12:18:23;99947.31;;;9.85;100.00
55540;BME280;41384;51.418;7.286;2023-04-07T12:20:49;99940.81;;;9.81;100.00
55540;BME280;41384;51.418;7.286;2023-04-07T12:23:14;99944.44;;;9.80;100.00
55540;BME280;41384;51.418;7.286;2023-04-07T12:25:40;99949.72;;;9.80;100.00
55540;BME280;41384;51.418;7.286;2023-04-07T12:28:05;99952.13;;;9.81;100.00
55540;BME280;41384;51.418;7.286;2023-04-07T12:30:30;99954.41;;;9.91;100.00
55540;BME280;41384;51.418;7.286;2023-04-07T12:32:56;99952.78;;;9.90;100.00
55540;BME280;41384;51.418;7.286;2023-04-07T12:35:21;99952.19;;;9.95;100.00
55540;BME280;41384;51.418;7.286;2023-04-07T12:37:46;99949.13;;;9.91;100.00
55540;BME280;41384;51.418;7.286;2023-04-07T12:40:12;99958.25;;;9.88;100.00
55540;BME280;41384;51.418;7.286;2023-04-07T12:42:38;99961.50;;;9.90;100.00
55540;BME280;41384;51.418;7.286;2023-04-07T12:45:04;99965.16;;;9.89;100.00
55540;BME280;41384;51.418;7.286;2023-04-07T12:47:29;99965.53;;;9.80;100.00
55540;BME280;41384;51.418;7.286;2023-04-07T12:49:56;99970.63;;;9.88;100.00
55540;BME280;41384;51.418;7.286;2023-04-07T12:52:21;99970.03;;;9.92;100.00
55540;BME280;41384;51.418;7.286;2023-04-07T12:54:46;99967.59;;;9.91;100.00
55540;BME280;41384;51.418;7.286;2023-04-07T12:57:11;99972.22;;;9.82;100.00
55540;BME280;41384;51.418;7.286;2023-04-07T12:59:37;99968.38;;;9.85;100.00
55540;BME280;41384;51.418;7.286;2023-04-07T13:02:02;99978.94;;;9.85;100.00
55540;BME280;41384;51.418;7.286;2023-04-07T13:04:27;99974.47;;;9.85;100.00
55540;BME280;41384;51.418;7.286;2023-04-07T13:06:54;99976.69;;;9.82;100.00
55540;BME280;41384;51.418;7.286;2023-04-07T13:09:19;99978.50;;;9.74;100.00
55540;BME280;41384;51.418;7.286;2023-04-07T13:11:45;99973.00;;;9.76;100.00
55540;BME280;41384;51.418;7.286;2023-04-07T13:14:10;99983.38;;;9.84;100.00
55540;BME280;41384;51.418;7.286;2023-04-07T13:16:35;99974.91;;;9.89;100.00
55540;BME280;41384;51.418;7.286;2023-04-07T13:19:01;99968.59;;;9.90;100.00
55540;BME280;41384;51.418;7.286;2023-04-07T13:21:26;99977.34;;;9.97;100.00
55540;BME280;41384;51.418;7.286;2023-04-07T13:23:51;99978.97;;;9.98;100.00